createdAt,value
2022-10-05T00:01:26.155Z,101082.84
2022-10-05T00:04:00.986Z,101081.28
2022-10-05T00:06:31.156Z,101076.34
2022-10-05T00:09:01.262Z,101079.94
2022-10-05T00:11:29.468Z,101074.66
2022-10-05T00:13:57.307Z,101078.44
2022-10-05T00:16:26.759Z,101071.16
2022-10-05T00:18:54.999Z,101076.44
2022-10-05T00:21:24.688Z,101076.53
2022-10-05T00:23:53.541Z,101075.59
2022-10-05T00:26:24.227Z,101066.94
2022-10-05T00:28:53.448Z,101071.09
2022-10-05T00:31:23.162Z,101067.59
2022-10-05T00:33:52.464Z,101068.03
2022-10-05T00:36:20.451Z,101068.38
2022-10-05T00:38:48.641Z,101067.75
2022-10-05T00:41:22.561Z,101067.13
2022-10-05T00:44:12.703Z,101061.03
2022-10-05T00:46:54.599Z,101056.78
2022-10-05T00:49:40.374Z,101058.81
2022-10-05T00:52:20.098Z,101055.22
2022-10-05T00:54:57.982Z,101049.22
2022-10-05T00:57:34.950Z,101042.47
2022-10-05T01:00:08.706Z,101042.88
2022-10-05T01:02:50.614Z,101046.47
2022-10-05T01:05:31.009Z,101051.66
2022-10-05T01:08:10.743Z,101044.81
2022-10-05T01:10:46.268Z,101032.78
2022-10-05T01:13:25.065Z,101035.53
2022-10-05T01:15:59.207Z,101044.28
2022-10-05T01:18:32.837Z,101044.38
2022-10-05T01:21:07.258Z,101046.06
2022-10-05T01:24:17.135Z,101052.28
2022-10-05T01:27:26.089Z,101053.66
2022-10-05T01:30:03.090Z,101057.56
2022-10-05T01:32:35.907Z,101052.19
2022-10-05T01:35:14.151Z,101049.56
2022-10-05T01:37:50.146Z,101040.78
2022-10-05T01:40:34.728Z,101048.06
2022-10-05T01:43:12.561Z,101051.75
2022-10-05T01:45:52.897Z,101051.03
2022-10-05T01:48:28.126Z,101053.03
2022-10-05T01:51:07.334Z,101054.72
2022-10-05T01:53:47.657Z,101055.75
2022-10-05T01:56:23.830Z,101045.84
2022-10-05T01:59:00.687Z,101042.72
2022-10-05T02:01:36.885Z,101048.19
2022-10-05T02:04:10.133Z,101040.50
2022-10-05T02:06:43.155Z,101036.56
2022-10-05T02:09:17.676Z,101030.53
2022-10-05T02:11:51.106Z,101013.28
2022-10-05T02:14:24.043Z,101010.75
2022-10-05T02:16:56.803Z,101007.28
2022-10-05T02:19:30.717Z,101003.16
2022-10-05T02:22:04.737Z,101002.22
2022-10-05T02:24:40.336Z,101002.44
2022-10-05T02:27:11.685Z,100991.25
2022-10-05T02:29:46.712Z,100990.72
2022-10-05T02:32:22.227Z,100985.56
2022-10-05T02:34:50.270Z,100989.34
2022-10-05T02:37:32.983Z,100986.72
2022-10-05T02:40:25.635Z,100986.81
2022-10-05T02:43:05.216Z,100983.56
2022-10-05T02:45:42.535Z,100979.44
2022-10-05T02:48:21.749Z,100969.66
2022-10-05T02:50:54.706Z,100963.66
2022-10-05T02:53:31.820Z,100959.47
2022-10-05T02:56:12.080Z,100958.06
2022-10-05T02:58:46.681Z,100959.78
2022-10-05T03:01:25.238Z,100956.81
2022-10-05T03:04:02.519Z,100953.88
2022-10-05T03:06:36.048Z,100953.97
2022-10-05T03:09:08.181Z,100950.63
2022-10-05T03:11:45.689Z,100942.91
2022-10-05T03:14:19.859Z,100949.25
2022-10-05T03:16:56.533Z,100953.88
2022-10-05T03:19:41.939Z,100952.38
2022-10-05T03:22:19.439Z,100950.47
2022-10-05T03:25:01.641Z,100958.28
2022-10-05T03:27:38.590Z,100957.63
2022-10-05T03:30:13.952Z,100958.91
2022-10-05T03:32:54.274Z,100957.09
2022-10-05T03:35:30.790Z,100956.91
2022-10-05T03:38:10.548Z,100963.00
2022-10-05T03:40:44.547Z,100968.88
2022-10-05T03:43:47.431Z,100978.25
2022-10-05T03:46:25.917Z,100989.91
2022-10-05T03:49:02.028Z,100985.28
2022-10-05T03:51:35.872Z,100986.97
2022-10-05T03:54:12.870Z,100995.72
2022-10-05T03:56:46.606Z,100994.69
2022-10-05T03:59:19.774Z,100997.00
2022-10-05T04:01:52.881Z,100996.06
2022-10-05T04:04:27.499Z,100997.00
2022-10-05T04:06:59.056Z,101001.72
2022-10-05T04:09:32.789Z,101001.50
2022-10-05T04:12:16.534Z,101007.63
2022-10-05T04:14:48.235Z,101005.06
2022-10-05T04:17:23.699Z,101013.19
2022-10-05T04:19:58.481Z,101005.00
2022-10-05T04:22:34.440Z,101000.38
2022-10-05T04:25:16.059Z,101000.06
2022-10-05T04:27:48.393Z,101001.22
2022-10-05T04:30:22.150Z,101001.31
2022-10-05T04:32:54.793Z,101012.78
2022-10-05T04:35:46.571Z,101006.88
2022-10-05T04:38:35.782Z,100999.50
2022-10-05T04:41:17.334Z,101003.78
2022-10-05T04:43:56.954Z,101000.75
2022-10-05T04:46:39.845Z,101001.34
2022-10-05T04:49:23.024Z,100999.13
2022-10-05T04:51:58.162Z,100992.44
2022-10-05T04:54:42.987Z,101003.72
2022-10-05T04:57:16.146Z,101005.41
2022-10-05T05:00:04.734Z,101012.00
2022-10-05T05:02:49.700Z,101014.94
2022-10-05T05:05:28.395Z,101018.78
2022-10-05T05:08:06.867Z,101018.16
2022-10-05T05:11:05.567Z,101022.78
2022-10-05T05:13:56.189Z,101025.41
2022-10-05T05:16:33.865Z,101028.13
2022-10-05T05:19:15.860Z,101033.47
2022-10-05T05:21:53.064Z,101038.72
2022-10-05T05:24:30.056Z,101036.09
2022-10-05T05:27:12.130Z,101035.44
2022-10-05T05:29:53.059Z,101039.75
2022-10-05T05:32:33.437Z,101051.13
2022-10-05T05:35:16.366Z,101049.22
2022-10-05T05:37:54.939Z,101038.72
2022-10-05T05:40:28.775Z,101040.31
2022-10-05T05:43:01.401Z,101052.59
2022-10-05T05:45:41.582Z,101054.31
2022-10-05T05:48:22.300Z,101057.03
2022-10-05T05:50:58.251Z,101057.84
2022-10-05T05:53:34.480Z,101054.31
2022-10-05T05:56:09.971Z,101050.09
2022-10-05T05:58:46.308Z,101046.59
2022-10-05T06:01:32.830Z,101052.31
2022-10-05T06:04:06.185Z,101058.75
2022-10-05T06:06:39.897Z,101059.13
2022-10-05T06:09:17.694Z,101063.34
2022-10-05T06:11:57.242Z,101064.72
2022-10-05T06:14:33.471Z,101063.38
2022-10-05T06:17:04.993Z,101067.31
2022-10-05T06:19:35.776Z,101061.88
2022-10-05T06:22:14.476Z,101069.88
2022-10-05T06:24:58.119Z,101063.28
2022-10-05T06:27:27.976Z,101066.47
2022-10-05T06:30:08.205Z,101058.19
2022-10-05T06:32:53.619Z,101061.22
2022-10-05T06:35:35.269Z,101064.19
2022-10-05T06:38:22.081Z,101066.13
2022-10-05T06:41:01.154Z,101066.47
2022-10-05T06:43:40.402Z,101057.25
2022-10-05T06:46:23.911Z,101048.72
2022-10-05T06:49:18.988Z,101056.38
2022-10-05T06:51:53.754Z,101070.19
2022-10-05T06:54:42.553Z,101060.41
2022-10-05T06:57:19.474Z,101060.38
2022-10-05T06:59:56.599Z,101055.84
2022-10-05T07:02:36.988Z,101056.13
2022-10-05T07:05:45.719Z,101059.31
2022-10-05T07:08:19.290Z,101056.81
2022-10-05T07:10:59.798Z,101059.88
2022-10-05T07:13:48.491Z,101075.03
2022-10-05T07:16:24.200Z,101063.81
2022-10-05T07:19:10.097Z,101068.03
2022-10-05T07:21:46.443Z,101066.25
2022-10-05T07:24:29.190Z,101068.88
2022-10-05T07:27:07.742Z,101072.25
2022-10-05T07:29:46.748Z,101073.72
2022-10-05T07:32:31.412Z,101073.38
2022-10-05T07:35:09.228Z,101066.88
2022-10-05T07:37:56.980Z,101059.66
2022-10-05T07:40:32.638Z,101061.50
2022-10-05T07:43:14.796Z,101055.50
2022-10-05T07:45:48.791Z,101064.63
2022-10-05T07:48:22.114Z,101070.53
2022-10-05T07:51:00.547Z,101064.69
2022-10-05T07:53:34.114Z,101065.78
2022-10-05T07:56:10.299Z,101063.38
2022-10-05T07:58:44.332Z,101061.97
2022-10-05T08:01:19.242Z,101061.75
2022-10-05T08:03:54.763Z,101067.03
2022-10-05T08:06:48.392Z,101060.06
2022-10-05T08:09:38.683Z,101054.53
2022-10-05T08:12:20.535Z,101062.56
2022-10-05T08:14:53.921Z,101054.75
2022-10-05T08:17:31.829Z,101057.44
2022-10-05T08:20:12.163Z,101051.06
2022-10-05T08:22:48.231Z,101050.72
2022-10-05T08:25:23.517Z,101041.22
2022-10-05T08:27:55.613Z,101043.66
2022-10-05T08:30:24.211Z,101040.38
2022-10-05T08:32:56.212Z,101032.47
2022-10-05T08:35:33.964Z,101030.63
2022-10-05T08:38:09.461Z,101037.84
2022-10-05T08:41:14.695Z,101031.94
2022-10-05T08:44:38.309Z,101033.59
2022-10-05T08:47:22.786Z,101029.69
2022-10-05T08:50:06.299Z,101025.66
2022-10-05T08:52:46.017Z,101021.78
2022-10-05T08:55:30.196Z,101024.06
2022-10-05T08:58:14.952Z,101020.63
2022-10-05T09:00:54.754Z,101016.13
2022-10-05T09:03:44.523Z,101013.78
2022-10-05T09:06:27.667Z,101017.47
2022-10-05T09:09:11.044Z,101014.88
2022-10-05T09:11:52.152Z,101013.88
2022-10-05T09:14:33.457Z,101008.75
2022-10-05T09:17:26.246Z,101016.75
2022-10-05T09:20:23.699Z,101019.31
2022-10-05T09:23:14.583Z,101009.84
2022-10-05T09:25:55.146Z,101014.34
2022-10-05T09:28:33.538Z,101007.81
2022-10-05T09:31:19.282Z,101010.19
2022-10-05T09:34:22.983Z,101000.59
2022-10-05T09:37:23.055Z,101003.69
2022-10-05T09:40:18.485Z,100999.38
2022-10-05T09:43:19.496Z,100998.41
2022-10-05T09:46:05.819Z,101000.41
2022-10-05T09:49:07.598Z,100992.31
2022-10-05T09:52:00.882Z,100994.09
2022-10-05T09:55:05.499Z,100995.38
2022-10-05T09:58:12.562Z,100987.81
2022-10-05T10:01:09.061Z,100988.66
2022-10-05T10:04:19.098Z,100987.09
2022-10-05T10:07:16.543Z,100987.06
2022-10-05T10:10:00.940Z,100982.03
2022-10-05T10:12:37.389Z,100991.91
2022-10-05T10:15:28.232Z,100974.25
2022-10-05T10:18:14.040Z,100972.03
2022-10-05T10:21:00.544Z,100965.03
2022-10-05T10:24:02.032Z,100960.88
2022-10-05T10:27:05.407Z,100965.00
2022-10-05T10:29:55.242Z,100956.31
2022-10-05T10:33:01.874Z,100951.91
2022-10-05T10:35:35.667Z,100961.69
2022-10-05T10:38:30.930Z,100954.91
2022-10-05T10:41:30.049Z,100961.59
2022-10-05T10:44:29.932Z,100947.84
2022-10-05T10:47:25.547Z,100962.13
2022-10-05T10:50:16.693Z,100954.44
2022-10-05T10:53:05.622Z,100951.06
2022-10-05T10:55:43.849Z,100948.78
2022-10-05T10:58:50.769Z,100952.19
2022-10-05T11:01:31.131Z,100947.50
2022-10-05T11:04:31.463Z,100944.69
2022-10-05T11:07:37.270Z,100943.31
2022-10-05T11:10:39.829Z,100934.84
2022-10-05T11:13:43.572Z,100933.19
2022-10-05T11:16:33.193Z,100935.03
2022-10-05T11:20:02.526Z,100921.34
2022-10-05T11:22:42.488Z,100930.03
2022-10-05T11:25:42.745Z,100926.03
2022-10-05T11:28:36.137Z,100918.50
2022-10-05T11:31:31.032Z,100917.00
2022-10-05T11:34:37.324Z,100914.31
2022-10-05T11:38:01.987Z,100905.13
2022-10-05T11:41:12.407Z,100915.97
2022-10-05T11:44:15.806Z,100906.81
2022-10-05T11:46:54.347Z,100899.28
2022-10-05T11:49:41.416Z,100893.72
2022-10-05T11:52:18.177Z,100907.41
2022-10-05T11:55:12.174Z,100899.50
2022-10-05T11:57:49.028Z,100903.50
2022-10-05T12:00:21.790Z,100922.13
2022-10-05T12:03:14.087Z,100898.81
2022-10-05T12:05:52.474Z,100893.25
2022-10-05T12:08:30.071Z,100899.53
2022-10-05T12:11:06.686Z,100894.53
2022-10-05T12:13:41.655Z,100875.34
2022-10-05T12:16:19.342Z,100877.38
2022-10-05T12:18:56.217Z,100886.19
2022-10-05T12:21:34.759Z,100878.69
2022-10-05T12:24:09.696Z,100876.09
2022-10-05T12:26:42.474Z,100885.03
2022-10-05T12:29:16.872Z,100879.19
2022-10-05T12:31:53.607Z,100877.34
2022-10-05T12:34:30.623Z,100875.94
2022-10-05T12:37:05.406Z,100873.66
2022-10-05T12:39:42.789Z,100868.19
2022-10-05T12:42:21.617Z,100862.34
2022-10-05T12:45:08.317Z,100856.25
2022-10-05T12:47:53.889Z,100865.78
2022-10-05T12:50:28.728Z,100862.16
2022-10-05T12:53:10.326Z,100857.44
2022-10-05T12:55:47.680Z,100861.16
2022-10-05T12:58:29.553Z,100858.22
2022-10-05T13:01:05.011Z,100852.06
2022-10-05T13:03:38.775Z,100843.78
2022-10-05T13:06:19.815Z,100846.22
2022-10-05T13:08:54.694Z,100834.25
2022-10-05T13:11:29.655Z,100835.41
2022-10-05T13:14:10.416Z,100833.72
2022-10-05T13:16:51.259Z,100845.19
2022-10-05T13:19:39.334Z,100832.34
2022-10-05T13:22:25.724Z,100836.84
2022-10-05T13:25:02.619Z,100824.75
2022-10-05T13:27:32.733Z,100828.69
2022-10-05T13:30:04.567Z,100822.84
2022-10-05T13:32:36.638Z,100822.66
2022-10-05T13:35:22.620Z,100821.91
2022-10-05T13:38:04.838Z,100814.88
2022-10-05T13:40:39.214Z,100813.53
2022-10-05T13:43:17.483Z,100820.50
2022-10-05T13:45:52.781Z,100812.97
2022-10-05T13:48:47.241Z,100816.84
2022-10-05T13:51:20.252Z,100821.84
2022-10-05T13:54:01.933Z,100819.03
2022-10-05T13:56:33.500Z,100802.72
2022-10-05T13:59:16.954Z,100804.06
2022-10-05T14:01:52.129Z,100804.97
2022-10-05T14:04:24.479Z,100809.91
2022-10-05T14:06:53.144Z,100797.75
2022-10-05T14:09:35.270Z,100798.59
2022-10-05T14:12:15.579Z,100788.09
2022-10-05T14:14:47.534Z,100794.06
2022-10-05T14:17:17.833Z,100805.69
2022-10-05T14:19:51.063Z,100792.06
2022-10-05T14:22:23.168Z,100795.63
2022-10-05T14:24:56.761Z,100795.63
2022-10-05T14:27:27.241Z,100791.22
2022-10-05T14:30:00.659Z,100776.81
2022-10-05T14:32:32.382Z,100777.56
2022-10-05T14:35:13.802Z,100778.75
2022-10-05T14:37:50.331Z,100775.56
2022-10-05T14:40:27.552Z,100763.66
2022-10-05T14:42:56.459Z,100776.09
2022-10-05T14:45:26.332Z,100766.34
2022-10-05T14:48:09.769Z,100765.16
2022-10-05T14:50:56.518Z,100762.59
2022-10-05T14:53:26.160Z,100760.69
2022-10-05T14:56:17.440Z,100759.13
2022-10-05T14:59:00.643Z,100752.53
2022-10-05T15:01:31.405Z,100748.91
2022-10-05T15:04:17.780Z,100743.84
2022-10-05T15:06:55.464Z,100744.88
2022-10-05T15:10:01.762Z,100740.53
2022-10-05T15:12:36.474Z,100742.19
2022-10-05T15:15:12.309Z,100734.53
2022-10-05T15:17:47.582Z,100735.34
2022-10-05T15:20:25.412Z,100732.88
2022-10-05T15:23:02.644Z,100735.00
2022-10-05T15:25:38.112Z,100727.41
2022-10-05T15:28:18.778Z,100721.84
2022-10-05T15:30:57.600Z,100722.44
2022-10-05T15:33:32.537Z,100721.13
2022-10-05T15:36:08.094Z,100717.28
2022-10-05T15:38:49.950Z,100710.63
2022-10-05T15:41:24.769Z,100708.78
2022-10-05T15:44:15.009Z,100709.44
2022-10-05T15:46:56.424Z,100709.09
2022-10-05T15:49:34.358Z,100696.31
2022-10-05T15:52:17.625Z,100698.25
2022-10-05T15:55:10.280Z,100694.84
2022-10-05T15:57:46.447Z,100690.56
2022-10-05T16:00:18.648Z,100694.00
2022-10-05T16:02:52.408Z,100689.19
2022-10-05T16:05:53.064Z,100683.00
2022-10-05T16:08:51.721Z,100683.19
2022-10-05T16:11:31.045Z,100681.41
2022-10-05T16:14:12.610Z,100691.50
2022-10-05T16:16:51.457Z,100696.03
2022-10-05T16:19:26.850Z,100693.72
2022-10-05T16:22:04.055Z,100691.75
2022-10-05T16:24:51.568Z,100703.69
2022-10-05T16:27:28.788Z,100700.72
2022-10-05T16:30:03.004Z,100691.59
2022-10-05T16:32:38.199Z,100692.53
2022-10-05T16:35:17.998Z,100703.78
2022-10-05T16:37:54.218Z,100696.81
2022-10-05T16:40:30.883Z,100708.44
2022-10-05T16:43:09.648Z,100714.38
2022-10-05T16:45:51.741Z,100717.94
2022-10-05T16:48:26.727Z,100718.00
2022-10-05T16:51:09.366Z,100713.22
2022-10-05T16:53:41.490Z,100717.75
2022-10-05T16:56:14.522Z,100718.63
2022-10-05T16:58:58.423Z,100725.88
2022-10-05T17:01:43.588Z,100723.41
2022-10-05T17:04:33.125Z,100732.94
2022-10-05T17:07:32.788Z,100741.00
2022-10-05T17:10:24.922Z,100736.50
2022-10-05T17:13:04.296Z,100742.53
2022-10-05T17:15:37.627Z,100746.06
2022-10-05T17:18:29.930Z,100751.44
2022-10-05T17:21:07.777Z,100744.94
2022-10-05T17:23:50.123Z,100757.78
2022-10-05T17:26:34.570Z,100756.66
2022-10-05T17:29:16.369Z,100761.84
2022-10-05T17:32:10.883Z,100762.81
2022-10-05T17:34:40.861Z,100767.84
2022-10-05T17:37:36.479Z,100762.31
2022-10-05T17:40:32.435Z,100774.69
2022-10-05T17:43:01.557Z,100777.34
2022-10-05T17:45:53.903Z,100785.53
2022-10-05T17:48:44.004Z,100792.38
2022-10-05T17:52:02.374Z,100796.56
2022-10-05T17:55:05.840Z,100803.91
2022-10-05T17:57:36.740Z,100819.56
2022-10-05T18:00:05.872Z,100817.91
2022-10-05T18:02:43.739Z,100818.22
2022-10-05T18:05:26.034Z,100815.88
2022-10-05T18:08:30.239Z,100815.03
2022-10-05T18:11:37.699Z,100827.19
2022-10-05T18:14:19.369Z,100828.69
2022-10-05T18:17:01.846Z,100834.81
2022-10-05T18:19:33.282Z,100846.59
2022-10-05T18:22:04.353Z,100844.06
2022-10-05T18:25:03.478Z,100853.88
2022-10-05T18:28:12.276Z,100858.81
2022-10-05T18:31:04.060Z,100867.06
2022-10-05T18:33:54.438Z,100870.53
2022-10-05T18:36:44.343Z,100869.78
2022-10-05T18:39:27.894Z,100875.38
2022-10-05T18:42:07.032Z,100883.16
2022-10-05T18:44:41.397Z,100882.94
2022-10-05T18:47:17.451Z,100883.53
2022-10-05T18:50:17.016Z,100895.63
2022-10-05T18:52:58.726Z,100889.41
2022-10-05T18:55:36.306Z,100895.66
2022-10-05T18:58:15.719Z,100893.59
2022-10-05T19:01:19.451Z,100906.38
2022-10-05T19:04:00.730Z,100900.50
2022-10-05T19:06:31.990Z,100909.50
2022-10-05T19:09:10.931Z,100912.16
2022-10-05T19:11:51.825Z,100926.16
2022-10-05T19:14:29.751Z,100928.81
2022-10-05T19:17:16.455Z,100926.16
2022-10-05T19:20:03.506Z,100938.31
2022-10-05T19:22:48.046Z,100934.66
2022-10-05T19:25:27.503Z,100942.66
2022-10-05T19:28:08.345Z,100946.16
2022-10-05T19:30:49.509Z,100952.03
2022-10-05T19:33:45.002Z,100954.47
2022-10-05T19:36:31.859Z,100958.13
2022-10-05T19:39:08.005Z,100960.91
2022-10-05T19:41:48.005Z,100967.25
2022-10-05T19:44:27.037Z,100974.56
2022-10-05T19:47:00.585Z,100974.69
2022-10-05T19:49:50.625Z,100975.69
2022-10-05T19:52:23.594Z,100982.16
2022-10-05T19:55:04.572Z,100984.13
2022-10-05T19:57:33.064Z,100993.66
2022-10-05T20:00:01.280Z,100989.13
2022-10-05T20:02:29.243Z,100989.06
2022-10-05T20:05:07.892Z,100996.22
2022-10-05T20:07:36.180Z,101004.22
2022-10-05T20:10:26.617Z,101006.56
2022-10-05T20:12:57.528Z,101002.78
2022-10-05T20:15:45.539Z,100998.56
2022-10-05T20:18:50.352Z,101002.38
2022-10-05T20:21:44.084Z,100999.03
2022-10-05T20:24:13.981Z,101006.88
2022-10-05T20:27:01.984Z,101007.41
2022-10-05T20:29:31.602Z,101010.91
2022-10-05T20:31:59.732Z,101014.09
2022-10-05T20:34:27.678Z,101015.09
2022-10-05T20:36:56.819Z,101020.28
2022-10-05T20:39:24.855Z,101026.44
2022-10-05T20:41:52.564Z,101031.47
2022-10-05T20:44:20.460Z,101030.47
2022-10-05T20:46:48.281Z,101042.25
2022-10-05T20:49:16.350Z,101047.72
2022-10-05T20:51:44.145Z,101049.84
2022-10-05T20:54:18.883Z,101052.50
2022-10-05T20:56:47.037Z,101046.38
2022-10-05T20:59:15.275Z,101057.03
2022-10-05T21:01:44.112Z,101055.50
2022-10-05T21:04:12.008Z,101059.28
2022-10-05T21:06:39.996Z,101057.19
2022-10-05T21:09:11.242Z,101062.97
2022-10-05T21:11:40.687Z,101062.44
2022-10-05T21:14:08.900Z,101066.22
2022-10-05T21:16:38.175Z,101078.97
2022-10-05T21:19:08.603Z,101077.44
2022-10-05T21:21:40.073Z,101077.63
2022-10-05T21:24:13.610Z,101074.25
2022-10-05T21:26:44.136Z,101066.56
2022-10-05T21:29:13.229Z,101062.50
2022-10-05T21:31:41.608Z,101068.81
2022-10-05T21:34:09.958Z,101069.97
2022-10-05T21:36:37.808Z,101054.94
2022-10-05T21:39:05.765Z,101072.06
2022-10-05T21:41:36.525Z,101071.53
2022-10-05T21:44:06.259Z,101070.66
2022-10-05T21:46:36.941Z,101074.31
2022-10-05T21:49:06.721Z,101080.78
2022-10-05T21:51:36.225Z,101085.53
2022-10-05T21:54:09.851Z,101085.97
2022-10-05T21:56:40.977Z,101091.44
2022-10-05T21:59:12.617Z,101105.84
2022-10-05T22:01:40.498Z,101106.00
2022-10-05T22:04:09.167Z,101106.25
2022-10-05T22:06:37.874Z,101107.66
2022-10-05T22:09:06.157Z,101105.56
2022-10-05T22:11:34.307Z,101107.81
2022-10-05T22:14:03.041Z,101113.69
2022-10-05T22:16:34.566Z,101110.75
2022-10-05T22:19:05.416Z,101114.97
2022-10-05T22:21:37.723Z,101113.84
2022-10-05T22:24:06.169Z,101113.97
2022-10-05T22:26:34.763Z,101114.94
2022-10-05T22:29:03.618Z,101116.63
2022-10-05T22:31:35.263Z,101119.44
2022-10-05T22:34:03.171Z,101123.78
2022-10-05T22:36:31.197Z,101124.47
2022-10-05T22:38:59.096Z,101122.66
2022-10-05T22:41:26.912Z,101127.13
2022-10-05T22:43:54.855Z,101136.78
2022-10-05T22:46:22.759Z,101130.66
2022-10-05T22:48:52.041Z,101123.66
2022-10-05T22:51:19.961Z,101126.44
2022-10-05T22:53:47.693Z,101130.91
2022-10-05T22:56:16.438Z,101130.22
2022-10-05T22:58:45.345Z,101123.34
2022-10-05T23:01:15.883Z,101125.31
2022-10-05T23:03:44.338Z,101123.63
2022-10-05T23:06:16.237Z,101129.22
2022-10-05T23:08:44.438Z,101133.16
2022-10-05T23:11:14.087Z,101126.41
2022-10-05T23:13:42.153Z,101119.84
2022-10-05T23:16:11.968Z,101130.88
2022-10-05T23:18:40.516Z,101142.88
2022-10-05T23:21:09.783Z,101151.25
2022-10-05T23:23:40.844Z,101145.66
2022-10-05T23:26:10.965Z,101152.38
2022-10-05T23:28:43.039Z,101161.84
2022-10-05T23:31:11.126Z,101165.00
2022-10-05T23:33:41.938Z,101163.56
2022-10-05T23:36:16.093Z,101167.75
2022-10-05T23:38:45.945Z,101175.13
2022-10-05T23:41:14.695Z,101177.22
2022-10-05T23:43:43.065Z,101175.81
2022-10-05T23:46:11.455Z,101186.09
2022-10-05T23:48:39.645Z,101183.84
2022-10-05T23:51:08.953Z,101186.78
2022-10-05T23:53:36.894Z,101191.50
2022-10-05T23:56:08.911Z,101195.38
2022-10-05T23:58:36.880Z,101196.47
